createdAt,value
2022-09-04T00:02:17.004Z,14.57
2022-09-04T00:05:13.134Z,14.60
2022-09-04T00:07:46.902Z,14.63
2022-09-04T00:10:23.886Z,14.45
2022-09-04T00:12:50.641Z,14.38
2022-09-04T00:15:20.542Z,14.49
2022-09-04T00:17:53.363Z,14.58
2022-09-04T00:20:43.331Z,14.67
2022-09-04T00:23:16.212Z,14.69
2022-09-04T00:25:59.445Z,14.76
2022-09-04T00:28:40.239Z,14.70
2022-09-04T00:31:19.467Z,14.66
2022-09-04T00:34:07.472Z,14.62
2022-09-04T00:36:37.052Z,14.70
2022-09-04T00:39:13.839Z,14.58
2022-09-04T00:42:09.233Z,14.63
2022-09-04T00:44:47.640Z,14.48
2022-09-04T00:47:32.942Z,14.48
2022-09-04T00:50:30.590Z,14.60
2022-09-04T00:53:22.454Z,14.58
2022-09-04T00:56:00.124Z,14.59
2022-09-04T00:58:44.887Z,14.54
2022-09-04T01:01:16.618Z,14.48
2022-09-04T01:04:04.653Z,14.50
2022-09-04T01:06:46.313Z,14.54
2022-09-04T01:09:32.552Z,14.53
2022-09-04T01:12:11.464Z,14.56
2022-09-04T01:14:41.981Z,14.55
2022-09-04T01:17:23.263Z,14.44
2022-09-04T01:20:14.773Z,14.33
2022-09-04T01:22:47.702Z,14.23
2022-09-04T01:25:23.149Z,14.28
2022-09-04T01:27:56.852Z,14.40
2022-09-04T01:30:23.698Z,14.41
2022-09-04T01:33:24.222Z,14.41
2022-09-04T01:36:41.702Z,14.33
2022-09-04T01:39:08.483Z,14.03
2022-09-04T01:41:53.133Z,13.97
2022-09-04T01:44:19.832Z,14.04
2022-09-04T01:47:16.521Z,14.03
2022-09-04T01:49:57.616Z,13.90
2022-09-04T01:52:36.743Z,13.99
2022-09-04T01:55:44.921Z,13.95
2022-09-04T01:58:27.774Z,13.92
2022-09-04T02:01:16.047Z,14.14
2022-09-04T02:03:50.922Z,14.23
2022-09-04T02:07:05.870Z,14.05
2022-09-04T02:09:57.975Z,13.98
2022-09-04T02:13:05.020Z,13.95
2022-09-04T02:15:58.748Z,13.97
2022-09-04T02:18:50.196Z,14.02
2022-09-04T02:21:44.189Z,14.07
2022-09-04T02:24:33.927Z,14.07
2022-09-04T02:27:26.640Z,14.00
2022-09-04T02:30:04.217Z,14.12
2022-09-04T02:32:52.202Z,14.14
2022-09-04T02:35:44.974Z,14.18
2022-09-04T02:38:30.879Z,14.20
2022-09-04T02:41:37.512Z,14.18
2022-09-04T02:44:41.760Z,14.07
2022-09-04T02:47:21.533Z,14.17
2022-09-04T02:50:26.564Z,13.92
2022-09-04T02:53:05.135Z,13.82
2022-09-04T02:56:09.672Z,13.82
2022-09-04T02:58:54.753Z,13.80
2022-09-04T03:01:29.395Z,13.76
2022-09-04T03:04:11.395Z,13.72
2022-09-04T03:06:58.073Z,13.80
2022-09-04T03:09:36.045Z,13.72
2022-09-04T03:12:26.707Z,13.73
2022-09-04T03:15:15.027Z,13.82
2022-09-04T03:18:05.814Z,13.94
2022-09-04T03:20:40.157Z,13.90
2022-09-04T03:23:19.595Z,13.97
2022-09-04T03:26:24.680Z,13.99
2022-09-04T03:29:32.864Z,13.88
2022-09-04T03:32:18.384Z,14.00
2022-09-04T03:34:56.883Z,14.00
2022-09-04T03:37:46.554Z,14.03
2022-09-04T03:40:26.083Z,14.11
2022-09-04T03:43:33.397Z,14.03
2022-09-04T03:46:34.693Z,13.92
2022-09-04T03:49:12.949Z,14.00
2022-09-04T03:51:51.273Z,14.04
2022-09-04T03:54:41.201Z,13.71
2022-09-04T03:57:11.997Z,13.75
2022-09-04T04:00:03.995Z,13.80
2022-09-04T04:02:58.149Z,13.80
2022-09-04T04:05:30.568Z,13.76
2022-09-04T04:08:18.633Z,13.83
2022-09-04T04:11:18.353Z,13.87
2022-09-04T04:14:18.743Z,13.88
2022-09-04T04:16:56.302Z,13.91
2022-09-04T04:19:51.508Z,13.81
2022-09-04T04:22:33.072Z,13.78
2022-09-04T04:25:02.479Z,13.77
2022-09-04T04:27:41.225Z,13.80
2022-09-04T04:30:17.277Z,13.71
2022-09-04T04:33:10.609Z,13.77
2022-09-04T04:35:56.143Z,13.78
2022-09-04T04:38:39.313Z,13.69
2022-09-04T04:41:22.034Z,13.69
2022-09-04T04:44:07.946Z,13.75
2022-09-04T04:46:52.021Z,13.77
2022-09-04T04:50:13.607Z,13.79
2022-09-04T04:53:00.162Z,13.73
2022-09-04T04:55:38.761Z,13.77
2022-09-04T04:58:44.697Z,13.86
2022-09-04T05:01:28.050Z,13.83
2022-09-04T05:03:57.588Z,13.76
2022-09-04T05:07:09.230Z,13.81
2022-09-04T05:09:44.040Z,13.80
2022-09-04T05:12:44.207Z,13.75
2022-09-04T05:15:18.057Z,13.83
2022-09-04T05:18:01.912Z,13.72
2022-09-04T05:20:54.545Z,13.94
2022-09-04T05:23:24.918Z,13.84
2022-09-04T05:26:12.337Z,13.90
2022-09-04T05:28:48.532Z,14.03
2022-09-04T05:31:17.921Z,14.05
2022-09-04T05:34:07.876Z,13.73
2022-09-04T05:36:47.337Z,13.96
2022-09-04T05:39:24.334Z,14.09
2022-09-04T05:42:06.563Z,14.19
2022-09-04T05:44:58.505Z,14.11
2022-09-04T05:47:37.373Z,14.33
2022-09-04T05:50:07.097Z,14.21
2022-09-04T05:52:45.918Z,14.52
2022-09-04T05:55:49.542Z,14.53
2022-09-04T05:58:37.421Z,14.49
2022-09-04T06:01:23.772Z,14.54
2022-09-04T06:04:01.117Z,14.43
2022-09-04T06:06:38.808Z,14.34
2022-09-04T06:09:20.617Z,14.47
2022-09-04T06:12:21.798Z,14.28
2022-09-04T06:15:13.315Z,14.41
2022-09-04T06:17:48.692Z,14.48
2022-09-04T06:20:15.292Z,14.55
2022-09-04T06:23:28.233Z,14.44
2022-09-04T06:26:03.322Z,14.41
2022-09-04T06:29:05.826Z,14.51
2022-09-04T06:31:51.162Z,14.49
2022-09-04T06:34:40.532Z,14.49
2022-09-04T06:37:42.862Z,14.51
2022-09-04T06:40:21.849Z,14.56
2022-09-04T06:43:00.729Z,14.67
2022-09-04T06:45:40.454Z,14.75
2022-09-04T06:48:23.903Z,14.73
2022-09-04T06:51:00.209Z,14.83
2022-09-04T06:54:05.061Z,15.06
2022-09-04T06:57:18.073Z,15.16
2022-09-04T06:59:53.896Z,15.67
2022-09-04T07:02:37.427Z,15.78
2022-09-04T07:05:23.032Z,15.57
2022-09-04T07:08:10.101Z,15.46
2022-09-04T07:10:43.686Z,15.80
2022-09-04T07:13:48.142Z,15.59
2022-09-04T07:16:14.781Z,15.86
2022-09-04T07:18:58.980Z,15.52
2022-09-04T07:21:40.208Z,15.48
2022-09-04T07:24:38.820Z,15.67
2022-09-04T07:27:23.541Z,15.91
2022-09-04T07:30:00.692Z,15.95
2022-09-04T07:32:55.080Z,15.68
2022-09-04T07:35:33.403Z,15.51
2022-09-04T07:38:33.416Z,15.63
2022-09-04T07:41:17.885Z,15.62
2022-09-04T07:44:09.897Z,15.61
2022-09-04T07:46:36.587Z,15.45
2022-09-04T07:49:36.713Z,15.36
2022-09-04T07:52:21.548Z,15.31
2022-09-04T07:55:11.431Z,15.22
2022-09-04T07:58:04.683Z,15.62
2022-09-04T08:00:42.573Z,16.60
2022-09-04T08:03:33.982Z,16.78
2022-09-04T08:06:14.198Z,16.81
2022-09-04T08:09:14.261Z,16.85
2022-09-04T08:11:55.583Z,17.37
2022-09-04T08:14:32.668Z,17.78
2022-09-04T08:17:37.250Z,18.59
2022-09-04T08:20:30.661Z,19.51
2022-09-04T08:23:24.642Z,19.84
2022-09-04T08:26:16.193Z,20.03
2022-09-04T08:28:57.181Z,19.07
2022-09-04T08:31:31.333Z,18.65
2022-09-04T08:34:29.169Z,18.12
2022-09-04T08:37:07.733Z,18.97
2022-09-04T08:40:18.864Z,18.84
2022-09-04T08:42:57.093Z,19.90
2022-09-04T08:46:14.725Z,19.55
2022-09-04T08:49:09.533Z,18.48
2022-09-04T08:51:57.315Z,18.93
2022-09-04T08:54:35.492Z,18.93
2022-09-04T08:57:33.199Z,19.09
2022-09-04T09:00:42.487Z,18.75
2022-09-04T09:03:29.793Z,18.80
2022-09-04T09:05:56.823Z,18.61
2022-09-04T09:08:41.942Z,19.20
2022-09-04T09:11:34.695Z,19.23
2022-09-04T09:14:25.283Z,19.10
2022-09-04T09:16:57.772Z,18.87
2022-09-04T09:19:44.822Z,18.89
2022-09-04T09:22:29.852Z,18.54
2022-09-04T09:25:13.012Z,18.25
2022-09-04T09:28:14.672Z,18.09
2022-09-04T09:31:12.509Z,18.17
2022-09-04T09:34:05.573Z,17.84
2022-09-04T09:36:51.023Z,18.01
2022-09-04T09:39:47.078Z,18.11
2022-09-04T09:42:14.082Z,18.07
2022-09-04T09:45:00.862Z,18.06
2022-09-04T09:48:01.411Z,17.89
2022-09-04T09:50:52.061Z,17.91
2022-09-04T09:53:47.687Z,18.00
2022-09-04T09:56:29.602Z,17.97
2022-09-04T09:59:21.142Z,17.96
2022-09-04T10:02:09.713Z,18.31
2022-09-04T10:05:10.194Z,19.19
2022-09-04T10:08:14.014Z,20.22
2022-09-04T10:11:07.121Z,20.44
2022-09-04T10:13:44.204Z,20.27
2022-09-04T10:16:35.901Z,20.21
2022-09-04T10:19:23.249Z,20.22
2022-09-04T10:22:19.224Z,20.00
2022-09-04T10:25:04.413Z,20.14
2022-09-04T10:27:52.880Z,19.64
2022-09-04T10:30:23.492Z,19.20
2022-09-04T10:33:10.716Z,18.85
2022-09-04T10:35:56.045Z,19.12
2022-09-04T10:38:58.755Z,18.83
2022-09-04T10:41:55.742Z,19.03
2022-09-04T10:44:47.001Z,18.97
2022-09-04T10:47:19.361Z,19.20
2022-09-04T10:50:01.382Z,19.61
2022-09-04T10:52:35.553Z,20.09
2022-09-04T10:55:17.884Z,20.71
2022-09-04T10:57:48.096Z,21.23
2022-09-04T11:00:21.082Z,21.24
2022-09-04T11:03:13.899Z,21.70
2022-09-04T11:06:39.212Z,21.24
2022-09-04T11:09:14.782Z,20.68
2022-09-04T11:12:31.736Z,20.20
2022-09-04T11:15:36.542Z,19.71
2022-09-04T11:18:24.342Z,19.80
2022-09-04T11:21:09.761Z,19.47
2022-09-04T11:24:21.572Z,19.23
2022-09-04T11:27:26.463Z,19.31
2022-09-04T11:30:02.566Z,19.26
2022-09-04T11:32:32.342Z,19.27
2022-09-04T11:35:25.973Z,19.25
2022-09-04T11:38:00.257Z,18.90
2022-09-04T11:40:39.241Z,19.15
2022-09-04T11:43:21.461Z,19.27
2022-09-04T11:46:15.678Z,19.11
2022-09-04T11:49:20.484Z,19.28
2022-09-04T11:52:04.262Z,19.15
2022-09-04T11:55:09.023Z,19.16
2022-09-04T11:57:41.772Z,19.33
2022-09-04T12:00:18.591Z,19.25
2022-09-04T12:02:48.203Z,19.27
2022-09-04T12:05:55.347Z,18.80
2022-09-04T12:08:38.911Z,18.98
2022-09-04T12:11:24.032Z,18.90
2022-09-04T12:14:15.303Z,18.81
2022-09-04T12:16:53.143Z,19.16
2022-09-04T12:19:24.352Z,19.07
2022-09-04T12:22:01.743Z,18.89
2022-09-04T12:24:46.442Z,18.76
2022-09-04T12:27:31.534Z,19.05
2022-09-04T12:30:05.893Z,19.20
2022-09-04T12:33:08.349Z,19.37
2022-09-04T12:36:00.806Z,19.28
2022-09-04T12:38:52.401Z,19.16
2022-09-04T12:41:25.631Z,19.47
2022-09-04T12:44:17.313Z,19.49
2022-09-04T12:46:56.024Z,19.37
2022-09-04T12:49:26.287Z,19.52
2022-09-04T12:52:07.033Z,19.76
2022-09-04T12:54:43.944Z,19.62
2022-09-04T12:57:20.829Z,19.64
2022-09-04T12:59:57.289Z,19.74
2022-09-04T13:02:51.762Z,19.85
2022-09-04T13:05:54.069Z,19.85
2022-09-04T13:08:29.801Z,19.96
2022-09-04T13:11:13.796Z,20.10
2022-09-04T13:13:43.343Z,20.24
2022-09-04T13:16:41.101Z,20.17
2022-09-04T13:19:12.025Z,19.86
2022-09-04T13:22:17.077Z,19.48
2022-09-04T13:24:59.542Z,19.47
2022-09-04T13:27:57.502Z,19.68
2022-09-04T13:30:25.595Z,19.88
2022-09-04T13:33:04.581Z,19.88
2022-09-04T13:35:59.160Z,20.05
2022-09-04T13:38:29.475Z,20.09
2022-09-04T13:41:15.722Z,20.06
2022-09-04T13:44:13.077Z,20.16
2022-09-04T13:46:58.001Z,20.18
2022-09-04T13:49:39.799Z,20.19
2022-09-04T13:52:11.276Z,20.26
2022-09-04T13:54:42.709Z,20.37
2022-09-04T13:57:21.960Z,20.42
2022-09-04T13:59:50.050Z,20.85
2022-09-04T14:02:24.610Z,20.82
2022-09-04T14:05:16.057Z,20.93
2022-09-04T14:07:45.809Z,20.91
2022-09-04T14:10:38.866Z,20.67
2022-09-04T14:13:14.153Z,20.64
2022-09-04T14:15:58.167Z,20.72
2022-09-04T14:19:15.878Z,20.79
2022-09-04T14:21:55.486Z,20.64
2022-09-04T14:24:46.170Z,20.72
2022-09-04T14:27:31.496Z,20.85
2022-09-04T14:30:04.233Z,20.71
2022-09-04T14:32:42.995Z,20.64
2022-09-04T14:35:29.002Z,20.52
2022-09-04T14:38:16.245Z,20.49
2022-09-04T14:40:56.732Z,20.50
2022-09-04T14:43:33.302Z,20.47
2022-09-04T14:46:18.312Z,20.50
2022-09-04T14:48:47.187Z,20.63
2022-09-04T14:51:16.816Z,20.60
2022-09-04T14:53:57.230Z,20.60
2022-09-04T14:56:29.146Z,20.70
2022-09-04T14:59:02.692Z,20.79
2022-09-04T15:01:31.631Z,20.76
2022-09-04T15:04:05.258Z,20.85
2022-09-04T15:07:01.019Z,20.93
2022-09-04T15:09:46.884Z,20.95
2022-09-04T15:12:25.711Z,20.85
2022-09-04T15:15:04.002Z,20.71
2022-09-04T15:17:31.127Z,20.79
2022-09-04T15:20:09.240Z,20.77
2022-09-04T15:22:51.381Z,20.61
2022-09-04T15:25:18.083Z,20.60
2022-09-04T15:28:03.893Z,20.60
2022-09-04T15:30:37.117Z,20.62
2022-09-04T15:33:12.424Z,20.56
2022-09-04T15:35:39.992Z,20.48
2022-09-04T15:38:22.740Z,20.51
2022-09-04T15:41:16.024Z,20.41
2022-09-04T15:43:58.334Z,20.30
2022-09-04T15:46:44.356Z,20.23
2022-09-04T15:49:32.458Z,20.12
2022-09-04T15:52:24.434Z,19.98
2022-09-04T15:54:56.238Z,19.85
2022-09-04T15:57:33.143Z,19.81
2022-09-04T16:00:09.491Z,19.85
2022-09-04T16:02:43.929Z,19.83
2022-09-04T16:05:24.007Z,19.75
2022-09-04T16:08:37.464Z,19.71
2022-09-04T16:11:18.985Z,19.62
2022-09-04T16:13:58.154Z,19.54
2022-09-04T16:16:48.649Z,19.54
2022-09-04T16:19:32.994Z,19.44
2022-09-04T16:22:10.472Z,19.31
2022-09-04T16:24:46.579Z,19.28
2022-09-04T16:27:19.300Z,19.22
2022-09-04T16:29:58.429Z,19.21
2022-09-04T16:32:27.194Z,19.12
2022-09-04T16:35:06.687Z,19.06
2022-09-04T16:37:51.603Z,19.00
2022-09-04T16:40:36.006Z,18.88
2022-09-04T16:43:24.678Z,18.74
2022-09-04T16:46:03.160Z,18.71
2022-09-04T16:48:35.368Z,18.70
2022-09-04T16:51:41.479Z,18.54
2022-09-04T16:54:17.327Z,18.46
2022-09-04T16:57:12.398Z,18.40
2022-09-04T16:59:46.221Z,18.36
2022-09-04T17:02:54.040Z,18.29
2022-09-04T17:05:50.001Z,18.27
2022-09-04T17:08:37.098Z,18.17
2022-09-04T17:11:15.279Z,18.13
2022-09-04T17:13:52.901Z,18.09
2022-09-04T17:16:24.137Z,18.05
2022-09-04T17:18:55.578Z,17.92
2022-09-04T17:26:44.394Z,17.89
2022-09-04T17:29:13.981Z,17.82
2022-09-04T17:29:18.804Z,17.93
2022-09-04T17:30:43.822Z,17.80
2022-09-04T17:39:03.177Z,17.75
2022-09-04T17:40:37.077Z,17.66
2022-09-04T17:40:51.162Z,17.60
2022-09-04T17:42:25.901Z,17.52
2022-09-04T17:45:01.564Z,17.51
2022-09-04T17:47:38.107Z,17.50
2022-09-04T17:50:13.951Z,17.46
2022-09-04T17:53:00.611Z,17.31
2022-09-04T17:55:34.939Z,17.17
2022-09-04T17:58:24.373Z,17.20
2022-09-04T18:01:15.006Z,17.10
2022-09-04T18:04:22.658Z,17.03
2022-09-04T18:07:28.928Z,17.02
2022-09-04T18:10:04.451Z,16.99
2022-09-04T18:12:48.728Z,16.88
2022-09-04T18:15:34.001Z,16.87
2022-09-04T18:18:29.282Z,16.86
2022-09-04T18:21:02.281Z,16.75
2022-09-04T18:24:10.111Z,16.71
2022-09-04T18:26:41.717Z,16.69
2022-09-04T18:29:56.905Z,16.64
2022-09-04T18:37:12.307Z,16.55
2022-09-04T18:37:20.965Z,16.52
2022-09-04T18:38:19.854Z,16.50
2022-09-04T18:42:34.341Z,16.41
2022-09-04T18:50:20.387Z,16.36
2022-09-04T18:50:51.326Z,16.34
2022-09-04T18:50:52.511Z,16.31
2022-09-04T18:52:30.348Z,16.28
2022-09-04T18:55:01.913Z,16.17
2022-09-04T18:57:48.129Z,16.18
2022-09-04T19:00:29.087Z,16.14
2022-09-04T19:03:19.569Z,16.10
2022-09-04T19:05:47.685Z,16.04
2022-09-04T19:08:21.898Z,15.97
2022-09-04T19:10:53.911Z,15.95
2022-09-04T19:13:48.018Z,15.92
2022-09-04T19:16:29.573Z,15.83
2022-09-04T19:19:09.121Z,15.86
2022-09-04T19:21:45.043Z,15.61
2022-09-04T19:24:35.982Z,15.52
2022-09-04T19:27:26.767Z,15.54
2022-09-04T19:30:19.857Z,15.47
2022-09-04T19:32:59.717Z,15.36
2022-09-04T19:35:36.978Z,15.35
2022-09-04T19:45:05.689Z,15.41
2022-09-04T19:46:00.712Z,15.15
2022-09-04T19:46:08.760Z,15.20
2022-09-04T19:47:27.344Z,15.22
2022-09-04T19:53:22.201Z,15.20
2022-09-04T19:53:33.327Z,15.28
2022-09-04T19:55:47.145Z,15.30
2022-09-04T19:58:39.964Z,15.29
2022-09-04T20:01:16.570Z,15.07
2022-09-04T20:03:49.283Z,15.15
2022-09-04T20:06:20.631Z,15.02
2022-09-04T20:09:33.242Z,14.92
2022-09-04T20:12:35.461Z,14.84
2022-09-04T20:15:12.179Z,14.85
2022-09-04T20:17:55.165Z,14.82
2022-09-04T20:20:25.127Z,14.79
2022-09-04T20:23:00.333Z,14.85
2022-09-04T20:25:33.421Z,14.81
2022-09-04T20:28:09.202Z,14.67
2022-09-04T20:30:37.462Z,14.76
2022-09-04T20:33:11.570Z,14.72
2022-09-04T20:35:49.199Z,14.53
2022-09-04T20:38:37.612Z,14.41
2022-09-04T20:41:50.314Z,14.48
2022-09-04T20:45:56.407Z,14.41
2022-09-04T20:52:45.939Z,14.40
2022-09-04T20:52:52.411Z,14.41
2022-09-04T20:53:37.522Z,14.34
2022-09-04T20:56:51.984Z,14.36
2022-09-04T21:03:11.418Z,14.31
2022-09-04T21:03:23.006Z,14.29
2022-09-04T21:05:54.174Z,14.30
2022-09-04T21:08:46.673Z,14.18
2022-09-04T21:11:39.708Z,14.26
2022-09-04T21:14:12.513Z,14.13
2022-09-04T21:17:02.077Z,14.09
2022-09-04T21:19:46.950Z,14.15
2022-09-04T21:22:43.910Z,14.05
2022-09-04T21:25:52.471Z,13.99
2022-09-04T21:28:45.158Z,13.99
2022-09-04T21:31:46.786Z,13.99
2022-09-04T21:34:43.608Z,13.87
2022-09-04T21:37:54.824Z,13.75
2022-09-04T21:40:51.637Z,13.72
2022-09-04T21:43:53.478Z,13.79
2022-09-04T21:46:50.915Z,13.66
2022-09-04T21:49:49.955Z,13.74
2022-09-04T21:52:28.128Z,13.81
2022-09-04T21:59:24.474Z,13.92
2022-09-04T22:02:27.024Z,14.04
2022-09-04T22:02:39.907Z,13.94
2022-09-04T22:04:34.944Z,13.77
2022-09-04T22:11:50.265Z,13.52
2022-09-04T22:13:37.633Z,13.46
2022-09-04T22:13:42.965Z,13.47
2022-09-04T22:16:17.879Z,13.34
2022-09-04T22:18:53.622Z,13.51
2022-09-04T22:22:03.296Z,13.35
2022-09-04T22:24:41.200Z,13.42
2022-09-04T22:28:08.109Z,13.36
2022-09-04T22:31:11.476Z,13.35
2022-09-04T22:34:14.933Z,13.36
2022-09-04T22:37:00.423Z,13.54
2022-09-04T22:39:31.768Z,13.49
2022-09-04T22:42:20.459Z,13.45
2022-09-04T22:45:10.055Z,13.47
2022-09-04T22:47:57.123Z,13.24
2022-09-04T22:50:49.369Z,13.32
2022-09-04T22:53:39.429Z,13.42
2022-09-04T22:56:22.892Z,13.41
2022-09-04T22:59:26.785Z,13.42
2022-09-04T23:02:14.021Z,13.30
2022-09-04T23:05:17.769Z,13.39
2022-09-04T23:13:48.166Z,13.54
2022-09-04T23:13:54.788Z,13.48
2022-09-04T23:14:20.053Z,13.46
2022-09-04T23:17:06.362Z,13.50
2022-09-04T23:26:33.635Z,13.35
2022-09-04T23:26:46.247Z,13.35
2022-09-04T23:26:53.590Z,13.21
2022-09-04T23:29:44.436Z,13.23
2022-09-04T23:32:49.853Z,13.36
2022-09-04T23:35:27.566Z,13.47
2022-09-04T23:38:33.055Z,13.52
2022-09-04T23:41:02.673Z,13.51
2022-09-04T23:43:47.953Z,13.57
2022-09-04T23:46:39.761Z,13.57
2022-09-04T23:49:37.852Z,13.51
2022-09-04T23:52:27.708Z,13.51
2022-09-04T23:55:06.375Z,13.58
2022-09-04T23:57:47.731Z,13.62
